createdAt,value
2018-10-03T00:00:33.763Z,13.83
2018-10-03T00:01:33.784Z,13.89
2018-10-03T00:02:33.726Z,13.80
2018-10-03T00:03:33.763Z,13.91
2018-10-03T00:04:33.778Z,13.97
2018-10-03T00:05:33.780Z,13.80
2018-10-03T00:06:33.803Z,13.97
2018-10-03T00:07:33.772Z,13.87
2018-10-03T00:08:33.799Z,13.82
2018-10-03T00:09:33.821Z,13.80
2018-10-03T00:10:33.820Z,13.89
2018-10-03T00:11:33.793Z,13.95
2018-10-03T00:12:33.800Z,13.94
2018-10-03T00:13:33.867Z,13.91
2018-10-03T00:14:33.843Z,13.83
2018-10-03T00:15:33.869Z,13.82
2018-10-03T00:16:33.863Z,13.82
2018-10-03T00:17:33.859Z,13.76
2018-10-03T00:18:33.857Z,13.67
2018-10-03T00:19:33.853Z,13.73
2018-10-03T00:20:33.876Z,13.68
2018-10-03T00:21:33.874Z,13.65
2018-10-03T00:22:33.881Z,13.67
2018-10-03T00:23:33.878Z,13.68
2018-10-03T00:24:33.898Z,13.75
2018-10-03T00:25:33.874Z,13.68
2018-10-03T00:26:33.892Z,13.70
2018-10-03T00:27:33.924Z,13.62
2018-10-03T00:28:33.914Z,13.65
2018-10-03T00:29:33.917Z,13.61
2018-10-03T00:30:33.919Z,13.65
2018-10-03T00:31:33.926Z,13.67
2018-10-03T00:32:33.961Z,13.64
2018-10-03T00:33:33.958Z,13.67
2018-10-03T00:34:33.966Z,13.67
2018-10-03T00:35:33.965Z,13.64
2018-10-03T00:36:33.982Z,13.64
2018-10-03T00:37:33.991Z,13.62
2018-10-03T00:38:33.982Z,13.58
2018-10-03T00:39:34.005Z,13.64
2018-10-03T00:40:33.988Z,13.67
2018-10-03T00:41:33.981Z,13.68
2018-10-03T00:42:34.010Z,13.65
2018-10-03T00:43:34.045Z,13.64
2018-10-03T00:44:34.030Z,13.57
2018-10-03T00:45:34.009Z,13.50
2018-10-03T00:46:34.028Z,13.57
2018-10-03T00:47:34.021Z,13.58
2018-10-03T00:48:34.086Z,13.58
2018-10-03T00:49:34.067Z,13.60
2018-10-03T00:50:34.081Z,13.60
2018-10-03T00:51:34.050Z,13.45
2018-10-03T00:52:34.084Z,13.46
2018-10-03T00:53:34.063Z,13.54
2018-10-03T00:54:34.083Z,13.54
2018-10-03T00:55:34.131Z,13.49
2018-10-03T00:56:34.132Z,13.46
2018-10-03T00:57:34.105Z,13.49
2018-10-03T00:58:34.110Z,13.50
2018-10-03T00:59:34.124Z,13.43
2018-10-03T01:00:34.157Z,13.42
2018-10-03T01:01:34.158Z,13.52
2018-10-03T01:02:34.124Z,13.50
2018-10-03T01:03:34.149Z,13.40
2018-10-03T01:04:34.151Z,13.43
2018-10-03T01:05:34.144Z,13.42
2018-10-03T01:06:34.200Z,13.47
2018-10-03T01:07:34.205Z,13.43
2018-10-03T01:08:34.166Z,13.37
2018-10-03T01:09:34.184Z,13.39
2018-10-03T01:10:34.192Z,13.40
2018-10-03T01:11:34.240Z,13.50
2018-10-03T01:12:34.239Z,13.50
2018-10-03T01:13:34.206Z,13.50
2018-10-03T01:14:34.288Z,13.46
2018-10-03T01:15:34.214Z,13.39
2018-10-03T01:16:34.241Z,13.42
2018-10-03T01:17:34.277Z,13.47
2018-10-03T01:18:34.271Z,13.49
2018-10-03T01:19:34.283Z,13.46
2018-10-03T01:20:34.264Z,13.43
2018-10-03T01:21:34.289Z,13.47
2018-10-03T01:22:34.310Z,13.54
2018-10-03T01:23:34.285Z,13.50
2018-10-03T01:24:34.324Z,13.54
2018-10-03T01:25:34.315Z,13.54
2018-10-03T01:26:34.304Z,13.50
2018-10-03T01:27:34.326Z,13.40
2018-10-03T01:28:34.350Z,13.47
2018-10-03T01:29:34.459Z,13.49
2018-10-03T01:30:34.331Z,13.40
2018-10-03T01:31:34.335Z,13.43
2018-10-03T01:32:34.388Z,13.43
2018-10-03T01:33:34.388Z,13.40
2018-10-03T01:34:34.368Z,13.45
2018-10-03T01:35:34.376Z,13.40
2018-10-03T01:36:34.374Z,13.42
2018-10-03T01:37:34.395Z,13.39
2018-10-03T01:38:34.437Z,13.23
2018-10-03T01:39:34.405Z,13.27
2018-10-03T01:40:34.402Z,13.20
2018-10-03T01:41:34.412Z,13.31
2018-10-03T01:42:34.421Z,13.28
2018-10-03T01:43:34.465Z,13.28
2018-10-03T01:44:34.477Z,13.26
2018-10-03T01:45:34.490Z,13.24
2018-10-03T01:46:34.455Z,13.23
2018-10-03T01:47:34.467Z,13.27
2018-10-03T01:48:34.461Z,13.24
2018-10-03T01:49:34.466Z,13.21
2018-10-03T01:50:34.518Z,13.21
2018-10-03T01:51:34.517Z,13.16
2018-10-03T01:52:34.493Z,13.20
2018-10-03T01:53:34.504Z,13.20
2018-10-03T01:54:34.557Z,13.24
2018-10-03T01:55:34.512Z,13.19
2018-10-03T01:56:34.556Z,13.16
2018-10-03T01:57:34.580Z,13.23
2018-10-03T01:58:34.538Z,13.03
2018-10-03T01:59:34.547Z,13.13
2018-10-03T02:00:34.542Z,13.13
2018-10-03T02:01:34.615Z,13.06
2018-10-03T02:02:34.567Z,13.05
2018-10-03T02:03:34.545Z,13.02
2018-10-03T02:04:34.630Z,13.09
2018-10-03T02:05:34.601Z,13.11
2018-10-03T02:06:34.574Z,13.23
2018-10-03T02:07:34.645Z,13.12
2018-10-03T02:08:34.611Z,13.12
2018-10-03T02:09:34.603Z,13.19
2018-10-03T02:10:34.588Z,13.13
2018-10-03T02:11:34.599Z,13.16
2018-10-03T02:12:34.616Z,13.13
2018-10-03T02:13:34.643Z,13.17
2018-10-03T02:14:34.631Z,13.19
2018-10-03T02:15:34.637Z,13.01
2018-10-03T02:16:34.632Z,13.05
2018-10-03T02:17:34.665Z,13.11
2018-10-03T02:18:34.686Z,13.03
2018-10-03T02:19:34.685Z,13.03
2018-10-03T02:20:34.677Z,13.09
2018-10-03T02:21:34.687Z,12.98
2018-10-03T02:22:34.699Z,12.93
2018-10-03T02:23:34.679Z,12.98
2018-10-03T02:24:34.721Z,13.06
2018-10-03T02:25:34.694Z,12.88
2018-10-03T02:26:34.741Z,12.88
2018-10-03T02:27:34.732Z,12.98
2018-10-03T02:28:34.728Z,12.91
2018-10-03T02:29:34.761Z,12.88
2018-10-03T02:30:34.748Z,12.94
2018-10-03T02:31:34.760Z,12.87
2018-10-03T02:32:34.745Z,12.91
2018-10-03T02:33:34.814Z,12.90
2018-10-03T02:34:34.784Z,12.91
2018-10-03T02:35:34.797Z,12.93
2018-10-03T02:36:34.790Z,12.87
2018-10-03T02:37:34.776Z,12.90
2018-10-03T02:38:34.822Z,12.83
2018-10-03T02:39:34.823Z,12.80
2018-10-03T02:40:34.867Z,12.84
2018-10-03T02:41:34.856Z,12.76
2018-10-03T02:42:34.854Z,12.83
2018-10-03T02:43:34.874Z,12.90
2018-10-03T02:44:35.472Z,12.78
2018-10-03T02:45:34.859Z,12.87
2018-10-03T02:46:34.835Z,12.90
2018-10-03T02:47:34.886Z,12.84
2018-10-03T02:48:34.871Z,12.83
2018-10-03T02:49:34.875Z,12.73
2018-10-03T02:50:34.855Z,12.73
2018-10-03T02:51:34.877Z,12.73
2018-10-03T02:52:34.875Z,12.84
2018-10-03T02:53:34.911Z,12.81
2018-10-03T02:54:34.895Z,12.75
2018-10-03T02:55:34.942Z,12.76
2018-10-03T02:56:34.908Z,12.76
2018-10-03T02:57:34.901Z,12.81
2018-10-03T02:58:34.940Z,12.73
2018-10-03T02:59:34.951Z,12.81
2018-10-03T03:00:34.958Z,12.80
2018-10-03T03:01:34.958Z,12.86
2018-10-03T03:02:34.971Z,12.86
2018-10-03T03:03:34.941Z,12.81
2018-10-03T03:04:34.960Z,12.87
2018-10-03T03:05:35.038Z,12.78
2018-10-03T03:06:34.962Z,12.78
2018-10-03T03:07:34.979Z,12.83
2018-10-03T03:08:35.043Z,12.88
2018-10-03T03:09:34.988Z,12.80
2018-10-03T03:10:35.052Z,12.76
2018-10-03T03:11:34.994Z,12.80
2018-10-03T03:12:35.008Z,12.83
2018-10-03T03:13:35.013Z,12.76
2018-10-03T03:14:35.056Z,12.81
2018-10-03T03:15:35.048Z,12.80
2018-10-03T03:16:35.090Z,12.78
2018-10-03T03:17:35.030Z,12.80
2018-10-03T03:18:35.046Z,12.81
2018-10-03T03:19:35.047Z,12.86
2018-10-03T03:20:35.098Z,12.84
2018-10-03T03:21:35.066Z,12.83
2018-10-03T03:22:35.064Z,12.88
2018-10-03T03:23:35.076Z,12.78
2018-10-03T03:24:35.077Z,12.83
2018-10-03T03:25:35.274Z,12.83
2018-10-03T03:26:35.095Z,12.91
2018-10-03T03:27:35.109Z,12.91
2018-10-03T03:28:35.123Z,12.88
2018-10-03T03:29:35.120Z,12.93
2018-10-03T03:30:35.132Z,12.93
2018-10-03T03:31:35.166Z,12.93
2018-10-03T03:32:35.146Z,12.93
2018-10-03T03:33:35.140Z,12.94
2018-10-03T03:34:35.152Z,12.93
2018-10-03T03:35:35.151Z,12.91
2018-10-03T03:36:35.181Z,12.94
2018-10-03T03:37:35.177Z,12.91
2018-10-03T03:38:35.178Z,12.93
2018-10-03T03:39:35.229Z,12.91
2018-10-03T03:40:35.186Z,12.88
2018-10-03T03:41:35.207Z,12.95
2018-10-03T03:42:35.206Z,12.91
2018-10-03T03:43:35.212Z,12.91
2018-10-03T03:44:35.214Z,12.91
2018-10-03T03:45:35.255Z,12.91
2018-10-03T03:46:35.224Z,12.95
2018-10-03T03:47:35.242Z,13.05
2018-10-03T03:48:35.241Z,13.02
2018-10-03T03:49:35.247Z,13.06
2018-10-03T03:50:35.287Z,13.06
2018-10-03T03:51:35.268Z,13.02
2018-10-03T03:52:35.275Z,12.99
2018-10-03T03:53:35.277Z,12.93
2018-10-03T03:54:35.285Z,12.93
2018-10-03T03:55:35.334Z,12.95
2018-10-03T03:56:35.298Z,12.93
2018-10-03T03:57:35.301Z,12.95
2018-10-03T03:58:35.318Z,12.93
2018-10-03T03:59:35.316Z,12.94
2018-10-03T04:00:35.339Z,12.87
2018-10-03T04:01:35.345Z,12.90
2018-10-03T04:02:35.344Z,12.78
2018-10-03T04:03:35.340Z,12.83
2018-10-03T04:04:35.344Z,12.81
2018-10-03T04:05:35.371Z,12.80
2018-10-03T04:06:35.401Z,12.88
2018-10-03T04:07:35.376Z,12.86
2018-10-03T04:08:35.390Z,12.83
2018-10-03T04:09:35.406Z,12.86
2018-10-03T04:10:35.410Z,12.91
2018-10-03T04:11:35.396Z,12.91
2018-10-03T04:12:35.439Z,12.91
2018-10-03T04:13:35.484Z,12.91
2018-10-03T04:14:35.425Z,12.95
2018-10-03T04:15:35.433Z,13.01
2018-10-03T04:16:35.450Z,12.86
2018-10-03T04:17:35.503Z,12.88
2018-10-03T04:18:35.450Z,13.01
2018-10-03T04:19:35.467Z,13.03
2018-10-03T04:20:35.459Z,13.01
2018-10-03T04:21:35.467Z,12.95
2018-10-03T04:22:35.513Z,12.94
2018-10-03T04:23:35.474Z,12.95
2018-10-03T04:24:35.487Z,12.91
2018-10-03T04:25:35.493Z,12.93
2018-10-03T04:26:35.497Z,12.93
2018-10-03T04:27:35.510Z,12.93
2018-10-03T04:28:35.571Z,12.93
2018-10-03T04:29:35.520Z,12.83
2018-10-03T04:30:35.526Z,12.90
2018-10-03T04:31:35.529Z,12.91
2018-10-03T04:32:35.543Z,12.95
2018-10-03T04:33:35.549Z,12.91
2018-10-03T04:34:35.605Z,13.02
2018-10-03T04:35:35.578Z,12.98
2018-10-03T04:36:35.570Z,12.94
2018-10-03T04:37:35.564Z,12.91
2018-10-03T04:38:35.570Z,12.90
2018-10-03T04:39:35.586Z,12.94
2018-10-03T04:40:35.611Z,12.91
2018-10-03T04:41:35.598Z,12.91
2018-10-03T04:42:35.600Z,12.95
2018-10-03T04:43:35.615Z,12.90
2018-10-03T04:44:35.610Z,12.91
2018-10-03T04:45:35.655Z,12.86
2018-10-03T04:46:35.662Z,12.90
2018-10-03T04:47:35.646Z,12.91
2018-10-03T04:48:35.647Z,12.88
2018-10-03T04:49:35.644Z,12.91
2018-10-03T04:50:35.650Z,12.87
2018-10-03T04:51:35.714Z,12.91
2018-10-03T04:52:35.697Z,12.94
2018-10-03T04:53:35.678Z,12.95
2018-10-03T04:54:35.706Z,12.86
2018-10-03T04:55:35.699Z,12.93
2018-10-03T04:56:35.697Z,12.91
2018-10-03T04:57:35.753Z,12.98
2018-10-03T04:58:35.715Z,12.98
2018-10-03T04:59:35.721Z,13.02
2018-10-03T05:00:35.725Z,12.99
2018-10-03T05:01:35.742Z,12.99
2018-10-03T05:02:35.765Z,13.03
2018-10-03T05:03:35.738Z,12.94
2018-10-03T05:04:35.743Z,13.01
2018-10-03T05:05:35.754Z,13.02
2018-10-03T05:06:35.764Z,13.03
2018-10-03T05:07:35.800Z,13.08
2018-10-03T05:08:35.793Z,13.12
2018-10-03T05:09:35.791Z,13.05
2018-10-03T05:10:35.799Z,13.05
2018-10-03T05:11:35.802Z,12.98
2018-10-03T05:12:35.825Z,13.03
2018-10-03T05:13:35.810Z,12.94
2018-10-03T05:14:35.833Z,12.93
2018-10-03T05:15:35.875Z,12.93
2018-10-03T05:16:35.833Z,12.93
2018-10-03T05:17:35.849Z,12.94
2018-10-03T05:18:35.861Z,12.98
2018-10-03T05:19:35.869Z,12.93
2018-10-03T05:20:35.871Z,12.98
2018-10-03T05:21:35.873Z,12.90
2018-10-03T05:22:35.880Z,12.87
2018-10-03T05:23:35.892Z,12.88
2018-10-03T05:24:35.918Z,12.87
2018-10-03T05:25:35.893Z,12.86
2018-10-03T05:26:35.913Z,12.88
2018-10-03T05:27:35.911Z,12.90
2018-10-03T05:28:35.918Z,12.90
2018-10-03T05:29:35.924Z,12.84
2018-10-03T05:30:36.002Z,12.88
2018-10-03T05:31:35.948Z,12.90
2018-10-03T05:32:35.943Z,12.91
2018-10-03T05:33:35.960Z,12.93
2018-10-03T05:34:35.999Z,12.99
2018-10-03T05:35:35.972Z,12.98
2018-10-03T05:36:35.988Z,12.88
2018-10-03T05:37:35.983Z,12.91
2018-10-03T05:38:35.991Z,12.94
2018-10-03T05:39:36.069Z,13.05
2018-10-03T05:40:36.000Z,13.05
2018-10-03T05:41:35.996Z,13.09
2018-10-03T05:42:36.041Z,13.06
2018-10-03T05:43:36.022Z,13.12
2018-10-03T05:44:36.035Z,13.08
2018-10-03T05:45:36.022Z,13.13
2018-10-03T05:46:36.037Z,13.13
2018-10-03T05:47:36.068Z,13.06
2018-10-03T05:48:36.122Z,13.05
2018-10-03T05:49:36.051Z,13.06
2018-10-03T05:50:36.059Z,13.01
2018-10-03T05:51:36.076Z,13.11
2018-10-03T05:52:36.084Z,13.12
2018-10-03T05:53:36.080Z,13.19
2018-10-03T05:54:36.144Z,13.21
2018-10-03T05:55:36.125Z,13.16
2018-10-03T05:56:36.105Z,13.17
2018-10-03T05:57:36.102Z,13.17
2018-10-03T05:58:36.176Z,13.08
2018-10-03T05:59:36.129Z,13.23
2018-10-03T06:00:36.137Z,13.17
2018-10-03T06:01:36.136Z,13.17
2018-10-03T06:02:36.188Z,13.19
2018-10-03T06:03:36.153Z,13.13
2018-10-03T06:04:36.167Z,13.13
2018-10-03T06:05:36.168Z,13.17
2018-10-03T06:06:36.196Z,13.09
2018-10-03T06:07:36.183Z,13.12
2018-10-03T06:08:36.185Z,13.20
2018-10-03T06:09:36.315Z,13.19
2018-10-03T06:10:36.194Z,13.17
2018-10-03T06:11:36.207Z,13.17
2018-10-03T06:12:36.222Z,13.11
2018-10-03T06:13:36.225Z,13.16
2018-10-03T06:14:36.236Z,13.13
2018-10-03T06:15:36.241Z,13.17
2018-10-03T06:16:36.268Z,13.23
2018-10-03T06:17:36.253Z,13.19
2018-10-03T06:18:36.321Z,13.26
2018-10-03T06:19:36.253Z,13.24
2018-10-03T06:20:36.278Z,13.23
2018-10-03T06:21:36.288Z,13.23
2018-10-03T06:22:36.278Z,13.20
2018-10-03T06:23:36.307Z,13.23
2018-10-03T06:24:36.331Z,13.20
2018-10-03T06:25:36.308Z,13.33
2018-10-03T06:26:36.313Z,13.39
2018-10-03T06:27:36.308Z,13.36
2018-10-03T06:28:36.318Z,13.33
2018-10-03T06:29:36.341Z,13.31
2018-10-03T06:30:36.393Z,13.37
2018-10-03T06:31:36.340Z,13.37
2018-10-03T06:32:36.348Z,13.45
2018-10-03T06:33:36.420Z,13.37
2018-10-03T06:34:36.392Z,13.39
2018-10-03T06:35:36.381Z,13.31
2018-10-03T06:36:36.369Z,13.23
2018-10-03T06:37:36.397Z,13.27
2018-10-03T06:38:36.379Z,13.28
2018-10-03T06:39:36.438Z,13.28
2018-10-03T06:40:36.427Z,13.39
2018-10-03T06:41:36.436Z,13.39
2018-10-03T06:42:36.422Z,13.42
2018-10-03T06:43:36.431Z,13.40
2018-10-03T06:44:36.439Z,13.47
2018-10-03T06:45:36.511Z,13.46
2018-10-03T06:46:36.481Z,13.52
2018-10-03T06:47:36.458Z,13.61
2018-10-03T06:48:36.480Z,13.54
2018-10-03T06:49:36.482Z,13.62
2018-10-03T06:50:36.485Z,13.62
2018-10-03T06:51:36.494Z,13.73
2018-10-03T06:52:36.516Z,13.65
2018-10-03T06:53:36.499Z,13.70
2018-10-03T06:54:36.515Z,13.85
2018-10-03T06:55:36.796Z,13.79
2018-10-03T06:56:36.537Z,13.89
2018-10-03T06:57:36.564Z,13.85
2018-10-03T06:58:36.537Z,13.85
2018-10-03T06:59:36.578Z,13.76
2018-10-03T07:00:36.562Z,13.82
2018-10-03T07:01:36.573Z,13.83
2018-10-03T07:02:36.579Z,13.73
2018-10-03T07:03:36.581Z,13.68
2018-10-03T07:04:36.597Z,13.82
2018-10-03T07:05:36.644Z,13.75
2018-10-03T07:06:36.606Z,13.70
2018-10-03T07:07:36.595Z,13.71
2018-10-03T07:08:36.607Z,13.65
2018-10-03T07:09:36.610Z,13.80
2018-10-03T07:10:36.624Z,13.73
2018-10-03T07:11:36.686Z,13.71
2018-10-03T07:12:36.621Z,13.68
2018-10-03T07:13:36.655Z,13.67
2018-10-03T07:14:36.647Z,13.67
2018-10-03T07:15:36.677Z,13.62
2018-10-03T07:16:36.681Z,13.70
2018-10-03T07:17:36.689Z,13.65
2018-10-03T07:18:36.688Z,13.64
2018-10-03T07:19:36.684Z,13.68
2018-10-03T07:20:36.694Z,13.68
2018-10-03T07:21:36.728Z,13.70
2018-10-03T07:22:36.731Z,13.64
2018-10-03T07:23:36.723Z,13.65
2018-10-03T07:24:36.769Z,13.64
2018-10-03T07:25:36.789Z,13.61
2018-10-03T07:26:36.721Z,13.64
2018-10-03T07:27:36.762Z,13.65
2018-10-03T07:28:36.805Z,13.67
2018-10-03T07:29:36.775Z,13.64
2018-10-03T07:30:36.759Z,13.61
2018-10-03T07:31:36.770Z,13.73
2018-10-03T07:32:36.873Z,13.67
2018-10-03T07:33:36.824Z,13.67
2018-10-03T07:34:36.862Z,13.70
2018-10-03T07:35:36.797Z,13.76
2018-10-03T07:36:36.805Z,13.67
2018-10-03T07:37:36.829Z,13.67
2018-10-03T07:38:36.817Z,13.82
2018-10-03T07:39:36.896Z,13.79
2018-10-03T07:40:36.837Z,13.91
2018-10-03T07:41:36.845Z,13.83
2018-10-03T07:42:36.853Z,13.86
2018-10-03T07:43:36.849Z,13.87
2018-10-03T07:44:36.900Z,13.82
2018-10-03T07:45:36.864Z,13.94
2018-10-03T07:46:36.876Z,13.89
2018-10-03T07:47:36.896Z,13.87
2018-10-03T07:48:36.942Z,13.95
2018-10-03T07:49:36.945Z,13.91
2018-10-03T07:50:36.923Z,13.94
2018-10-03T07:51:36.921Z,14.00
2018-10-03T07:52:36.985Z,14.00
2018-10-03T07:53:37.021Z,13.95
2018-10-03T07:54:36.989Z,14.03
2018-10-03T07:55:36.961Z,14.08
2018-10-03T07:56:36.996Z,14.05
2018-10-03T07:57:36.953Z,14.07
2018-10-03T07:58:37.025Z,14.05
2018-10-03T07:59:36.981Z,14.01
2018-10-03T08:00:37.053Z,14.08
2018-10-03T08:01:37.000Z,14.12
2018-10-03T08:02:37.049Z,14.07
2018-10-03T08:03:36.997Z,14.16
2018-10-03T08:04:37.016Z,14.07
2018-10-03T08:05:37.071Z,14.01
2018-10-03T08:06:37.016Z,14.07
2018-10-03T08:07:37.038Z,13.98
2018-10-03T08:08:37.092Z,13.97
2018-10-03T08:09:37.050Z,14.08
2018-10-03T08:10:37.095Z,14.03
2018-10-03T08:11:37.063Z,14.12
2018-10-03T08:12:37.094Z,14.15
2018-10-03T08:13:37.123Z,14.25
2018-10-03T08:14:37.114Z,14.26
2018-10-03T08:15:37.133Z,14.26
2018-10-03T08:16:37.157Z,14.40
2018-10-03T08:17:37.231Z,14.38
2018-10-03T08:18:37.126Z,14.38
2018-10-03T08:19:37.158Z,14.45
2018-10-03T08:20:37.130Z,14.56
2018-10-03T08:21:37.177Z,14.43
2018-10-03T08:22:37.214Z,14.49
2018-10-03T08:23:37.196Z,14.53
2018-10-03T08:24:37.184Z,14.52
2018-10-03T08:25:37.193Z,14.52
2018-10-03T08:26:37.173Z,14.67
2018-10-03T08:27:37.190Z,14.73
2018-10-03T08:28:37.216Z,14.66
2018-10-03T08:29:37.229Z,14.66
2018-10-03T08:30:37.238Z,14.73
2018-10-03T08:31:37.270Z,14.62
2018-10-03T08:32:37.343Z,14.62
2018-10-03T08:33:37.271Z,14.77
2018-10-03T08:34:37.305Z,14.89
2018-10-03T08:35:37.282Z,14.73
2018-10-03T08:36:37.326Z,14.90
2018-10-03T08:37:37.309Z,14.79
2018-10-03T08:38:37.337Z,14.79
2018-10-03T08:39:37.279Z,14.81
2018-10-03T08:40:37.534Z,14.79
2018-10-03T08:41:37.323Z,14.71
2018-10-03T08:42:37.310Z,14.77
2018-10-03T08:43:37.318Z,14.71
2018-10-03T08:44:37.487Z,14.71
2018-10-03T08:45:37.415Z,14.78
2018-10-03T08:46:37.405Z,14.90
2018-10-03T08:47:37.349Z,14.92
2018-10-03T08:48:37.368Z,14.86
2018-10-03T08:49:37.407Z,14.86
2018-10-03T08:50:37.383Z,14.78
2018-10-03T08:51:37.383Z,14.79
2018-10-03T08:52:37.392Z,14.86
2018-10-03T08:53:37.411Z,14.92
2018-10-03T08:54:37.426Z,14.92
2018-10-03T08:55:37.499Z,14.87
2018-10-03T08:56:37.417Z,14.82
2018-10-03T08:57:37.423Z,14.96
2018-10-03T08:58:37.666Z,14.92
2018-10-03T08:59:37.452Z,14.94
2018-10-03T09:00:37.467Z,14.89
2018-10-03T09:01:37.484Z,14.77
2018-10-03T09:02:37.490Z,14.77
2018-10-03T09:03:37.492Z,14.93
2018-10-03T09:04:37.484Z,14.85
2018-10-03T09:05:37.523Z,14.94
2018-10-03T09:06:37.528Z,14.94
2018-10-03T09:07:37.520Z,14.90
2018-10-03T09:08:38.498Z,15.02
2018-10-03T09:09:37.581Z,15.00
2018-10-03T09:10:37.529Z,14.96
2018-10-03T09:11:37.631Z,15.04
2018-10-03T09:12:37.557Z,15.04
2018-10-03T09:13:37.578Z,15.02
2018-10-03T09:14:37.616Z,14.99
2018-10-03T09:15:37.598Z,15.00
2018-10-03T09:16:37.593Z,15.05
2018-10-03T09:17:37.614Z,14.99
2018-10-03T09:18:37.638Z,15.07
2018-10-03T09:19:37.628Z,15.04
2018-10-03T09:20:37.677Z,14.99
2018-10-03T09:21:37.644Z,14.99
2018-10-03T09:22:37.626Z,14.94
2018-10-03T09:23:37.673Z,15.05
2018-10-03T09:24:37.697Z,14.93
2018-10-03T09:25:37.727Z,14.94
2018-10-03T09:26:37.704Z,14.87
2018-10-03T09:27:37.725Z,14.89
2018-10-03T09:28:38.035Z,14.89
2018-10-03T09:29:37.722Z,15.00
2018-10-03T09:30:37.746Z,14.90
2018-10-03T09:31:37.754Z,14.87
2018-10-03T09:32:37.710Z,15.00
2018-10-03T09:33:37.719Z,14.87
2018-10-03T09:34:37.755Z,14.90
2018-10-03T09:35:37.768Z,14.89
2018-10-03T09:36:37.733Z,14.79
2018-10-03T09:37:37.797Z,14.89
2018-10-03T09:38:37.761Z,14.82
2018-10-03T09:39:37.893Z,14.85
2018-10-03T09:40:37.780Z,14.77
2018-10-03T09:41:37.820Z,14.85
2018-10-03T09:42:37.814Z,14.73
2018-10-03T09:43:37.815Z,14.81
2018-10-03T09:44:37.861Z,14.81
2018-10-03T09:45:37.841Z,14.73
2018-10-03T09:46:37.881Z,14.79
2018-10-03T09:47:37.865Z,14.87
2018-10-03T09:48:37.831Z,14.96
2018-10-03T09:49:37.864Z,14.90
2018-10-03T09:50:38.874Z,14.96
2018-10-03T09:51:37.952Z,14.87
2018-10-03T09:52:37.856Z,14.94
2018-10-03T09:53:37.899Z,14.97
2018-10-03T09:54:38.143Z,15.05
2018-10-03T09:55:38.028Z,14.99
2018-10-03T09:56:38.222Z,15.11
2018-10-03T09:57:37.927Z,15.07
2018-10-03T09:58:37.921Z,15.10
2018-10-03T09:59:37.945Z,15.26
2018-10-03T10:00:38.053Z,15.19
2018-10-03T10:01:37.983Z,15.23
2018-10-03T10:02:37.945Z,15.18
2018-10-03T10:03:37.968Z,15.35
2018-10-03T10:04:37.969Z,15.43
2018-10-03T10:05:37.982Z,15.22
2018-10-03T10:06:38.092Z,15.23
2018-10-03T10:07:38.297Z,15.23
2018-10-03T10:08:38.037Z,15.35
2018-10-03T10:09:38.072Z,15.37
2018-10-03T10:10:38.073Z,15.41
2018-10-03T10:11:38.304Z,15.43
2018-10-03T10:12:38.077Z,15.33
2018-10-03T10:13:38.044Z,15.47
2018-10-03T10:14:38.138Z,15.43
2018-10-03T10:15:38.056Z,15.41
2018-10-03T10:16:38.969Z,15.45
2018-10-03T10:17:38.093Z,15.44
2018-10-03T10:18:38.149Z,15.35
2018-10-03T10:19:38.092Z,15.39
2018-10-03T10:20:38.223Z,15.44
2018-10-03T10:21:38.135Z,15.43
2018-10-03T10:22:38.196Z,15.45
2018-10-03T10:23:38.598Z,15.44
2018-10-03T10:24:38.330Z,15.47
2018-10-03T10:25:38.148Z,15.59
2018-10-03T10:26:38.165Z,15.62
2018-10-03T10:27:38.174Z,15.62
2018-10-03T10:28:38.394Z,15.54
2018-10-03T10:29:38.235Z,15.57
2018-10-03T10:30:38.184Z,15.66
2018-10-03T10:31:38.232Z,15.67
2018-10-03T10:32:38.925Z,15.67
2018-10-03T10:33:38.336Z,15.67
2018-10-03T10:34:38.421Z,15.73
2018-10-03T10:35:38.280Z,15.66
2018-10-03T10:36:38.346Z,15.70
2018-10-03T10:37:38.521Z,15.80
2018-10-03T10:38:38.389Z,15.81
2018-10-03T10:39:38.280Z,15.87
2018-10-03T10:40:38.548Z,15.80
2018-10-03T10:41:38.593Z,15.76
2018-10-03T10:42:38.299Z,15.78
2018-10-03T10:43:38.353Z,15.78
2018-10-03T10:44:38.349Z,15.80
2018-10-03T10:45:38.476Z,15.80
2018-10-03T10:46:38.353Z,15.81
2018-10-03T10:47:38.391Z,15.88
2018-10-03T10:48:38.329Z,15.87
2018-10-03T10:49:38.368Z,15.92
2018-10-03T10:50:38.360Z,15.88
2018-10-03T10:51:38.372Z,15.88
2018-10-03T10:52:38.423Z,15.83
2018-10-03T10:53:38.406Z,15.91
2018-10-03T10:54:38.482Z,15.80
2018-10-03T10:55:38.406Z,15.78
2018-10-03T10:56:38.732Z,15.67
2018-10-03T10:57:38.434Z,15.73
2018-10-03T10:58:38.559Z,15.78
2018-10-03T10:59:38.446Z,15.54
2018-10-03T11:00:38.440Z,15.50
2018-10-03T11:01:38.446Z,15.50
2018-10-03T11:02:38.831Z,15.39
2018-10-03T11:03:38.473Z,15.33
2018-10-03T11:04:38.880Z,15.00
2018-10-03T11:05:38.869Z,14.97
2018-10-03T11:06:38.591Z,14.86
2018-10-03T11:07:38.492Z,14.74
2018-10-03T11:08:38.499Z,14.66
2018-10-03T11:09:38.557Z,14.77
2018-10-03T11:10:38.558Z,14.68
2018-10-03T11:11:38.539Z,14.59
2018-10-03T11:12:38.540Z,14.61
2018-10-03T11:13:38.548Z,14.63
2018-10-03T11:14:38.546Z,14.61
2018-10-03T11:15:39.094Z,14.58
2018-10-03T11:16:38.558Z,14.55
2018-10-03T11:17:38.615Z,14.55
2018-10-03T11:18:38.668Z,14.53
2018-10-03T11:19:38.592Z,14.38
2018-10-03T11:20:38.702Z,14.41
2018-10-03T11:21:38.773Z,14.33
2018-10-03T11:22:38.678Z,14.31
2018-10-03T11:23:38.746Z,14.37
2018-10-03T11:24:38.801Z,14.31
2018-10-03T11:25:38.642Z,14.38
2018-10-03T11:26:38.827Z,14.36
2018-10-03T11:27:38.660Z,14.37
2018-10-03T11:28:38.747Z,14.30
2018-10-03T11:29:38.670Z,14.33
2018-10-03T11:30:38.697Z,14.36
2018-10-03T11:31:38.664Z,14.23
2018-10-03T11:32:38.740Z,14.30
2018-10-03T11:33:38.697Z,14.26
2018-10-03T11:34:38.729Z,14.20
2018-10-03T11:35:38.711Z,14.25
2018-10-03T11:36:38.738Z,14.25
2018-10-03T11:37:38.720Z,14.13
2018-10-03T11:38:38.717Z,14.12
2018-10-03T11:39:38.770Z,14.22
2018-10-03T11:40:38.781Z,14.16
2018-10-03T11:41:38.778Z,14.25
2018-10-03T11:42:38.747Z,14.26
2018-10-03T11:43:38.802Z,14.36
2018-10-03T11:44:38.911Z,14.36
2018-10-03T11:45:38.817Z,14.38
2018-10-03T11:46:38.782Z,14.36
2018-10-03T11:47:38.785Z,14.38
2018-10-03T11:48:38.824Z,14.48
2018-10-03T11:49:38.880Z,14.51
2018-10-03T11:50:38.865Z,14.58
2018-10-03T11:51:39.048Z,14.58
2018-10-03T11:52:38.858Z,14.61
2018-10-03T11:53:38.835Z,14.68
2018-10-03T11:54:38.930Z,14.77
2018-10-03T11:55:38.866Z,14.78
2018-10-03T11:56:39.048Z,14.85
2018-10-03T11:57:39.334Z,14.89
2018-10-03T11:58:38.907Z,14.94
2018-10-03T11:59:38.962Z,15.00
2018-10-03T12:00:38.915Z,14.97
2018-10-03T12:01:38.894Z,15.12
2018-10-03T12:02:38.927Z,15.04
2018-10-03T12:03:38.930Z,15.10
2018-10-03T12:04:39.016Z,15.12
2018-10-03T12:05:38.942Z,15.15
2018-10-03T12:06:38.992Z,15.14
2018-10-03T12:07:38.964Z,15.12
2018-10-03T12:08:38.984Z,15.10
2018-10-03T12:09:38.997Z,15.07
2018-10-03T12:10:38.990Z,15.08
2018-10-03T12:11:39.002Z,15.14
2018-10-03T12:12:38.993Z,15.11
2018-10-03T12:13:39.059Z,15.11
2018-10-03T12:14:39.027Z,15.10
2018-10-03T12:15:39.018Z,15.11
2018-10-03T12:16:39.025Z,15.12
2018-10-03T12:17:39.038Z,15.02
2018-10-03T12:18:39.044Z,15.11
2018-10-03T12:19:39.051Z,15.08
2018-10-03T12:20:39.050Z,15.07
2018-10-03T12:21:39.079Z,15.17
2018-10-03T12:22:39.061Z,15.11
2018-10-03T12:23:39.137Z,15.05
2018-10-03T12:24:39.126Z,15.10
2018-10-03T12:25:39.078Z,15.14
2018-10-03T12:26:39.119Z,15.02
2018-10-03T12:27:39.160Z,15.05
2018-10-03T12:28:39.145Z,14.99
2018-10-03T12:29:39.138Z,15.11
2018-10-03T12:30:39.139Z,15.22
2018-10-03T12:31:39.138Z,15.22
2018-10-03T12:32:39.151Z,15.23
2018-10-03T12:33:39.211Z,15.22
2018-10-03T12:34:39.196Z,15.23
2018-10-03T12:35:39.152Z,15.27
2018-10-03T12:36:39.169Z,15.27
2018-10-03T12:37:39.180Z,15.19
2018-10-03T12:38:39.261Z,14.87
2018-10-03T12:39:39.242Z,14.67
2018-10-03T12:40:39.247Z,14.59
2018-10-03T12:41:39.258Z,14.51
2018-10-03T12:42:39.214Z,14.40
2018-10-03T12:43:39.225Z,14.16
2018-10-03T12:44:39.318Z,14.15
2018-10-03T12:45:39.232Z,14.15
2018-10-03T12:46:39.236Z,14.08
2018-10-03T12:47:39.262Z,14.13
2018-10-03T12:48:39.272Z,13.97
2018-10-03T12:49:39.293Z,13.97
2018-10-03T12:50:39.291Z,13.87
2018-10-03T12:51:39.274Z,13.86
2018-10-03T12:52:39.313Z,13.87